Larkfield, California
Current Conditions -  °F | °C
As of 9:27 PM on Friday 28 Nov 2014 (Local Time) from KSTS Reporting Station
Haze Haze  
Wind Chill: 13°   Ceiling: 500
Heat Index: 13°   Visibility: 3mi
Dew Point: 13°   Wind: 6mph
Humidity: 100%   Direction: 140°SE
Pressure: 29.84"   Gusts: NA
Location:  38.4891°N, 122.745°W
Report Text: KSTS 290527Z AUTO 14005KT 3SM BR BKN005 OVC009 13/13 A2984 RMK AO2 RAE00 CIG 003V008 P0000
Loading
Personal Weather Stations






























Interactive Weather Map New forecast layout! Learn more

10-Day Weather Forecast

Advertisements
Track Severe Weather on mobile